Time;durP1;ratioP1;P1;durP2;ratioP2;P2;SDS_P1;SDS_P2;PMS_P1;PMS_P2;Temp;Humidity;BMP_temperature;BMP_pressure;BME280_temperature;BME280_humidity;BME280_pressure;Samples;Min_cycle;Max_cycle;Signal;HPM_P1;HPM_P2
2022/04/28 00:02:33;;;;;;;6.32;3.83;;;4.10;99.90;;;;;;5045113;28;20479;-59
2022/04/28 00:05:57;;;;;;;7.22;4.00;;;4.10;99.90;;;;;;5032353;28;20029;-59
2022/04/28 00:09:22;;;;;;;6.50;3.35;;;4.10;99.90;;;;;;5039219;28;20489;-54
2022/04/28 00:12:10;;;;;;;11.70;4.32;;;4.20;99.90;;;;;;5037495;28;20045;-59
2022/04/28 00:14:36;;;;;;;7.00;3.95;;;4.30;99.90;;;;;;5045985;28;20042;-59
2022/04/28 00:17:02;;;;;;;5.63;3.50;;;4.40;99.90;;;;;;5029146;28;20026;-59
2022/04/28 00:19:27;;;;;;;5.47;2.90;;;4.50;99.90;;;;;;5046552;28;20026;-59
2022/04/28 00:21:54;;;;;;;7.18;3.58;;;4.50;99.90;;;;;;5048053;28;20059;-59
2022/04/28 00:24:19;;;;;;;7.85;3.65;;;4.60;99.90;;;;;;5030385;28;20431;-59
2022/04/28 00:26:45;;;;;;;6.50;3.47;;;4.70;99.90;;;;;;5047604;28;20029;-59
2022/04/28 00:29:10;;;;;;;4.93;3.20;;;4.70;99.90;;;;;;5030481;28;20428;-59
2022/04/28 00:31:36;;;;;;;7.80;3.78;;;4.80;99.90;;;;;;5046596;28;20128;-59
2022/04/28 00:34:01;;;;;;;6.15;3.30;;;4.80;99.90;;;;;;5038051;28;20025;-59
2022/04/28 00:36:27;;;;;;;6.20;3.58;;;4.90;99.90;;;;;;5030288;28;20057;-59
2022/04/28 00:38:52;;;;;;;6.70;3.45;;;4.90;99.90;;;;;;5047754;28;20025;-59
2022/04/28 00:41:18;;;;;;;6.93;4.00;;;4.90;99.90;;;;;;5015020;28;20030;-59
2022/04/28 00:43:51;;;;;;;8.60;3.65;;;4.90;99.90;;;;;;5046401;28;20017;-59
2022/04/28 00:46:17;;;;;;;6.55;4.07;;;4.90;99.90;;;;;;5030574;28;20470;-58
2022/04/28 00:51:48;;;;;;;7.63;4.03;;;4.90;99.90;;;;;;4985602;28;20284;-58
2022/04/28 00:54:14;;;;;;;7.38;3.67;;;4.90;99.90;;;;;;4985105;28;20030;-58
2022/04/28 00:56:40;;;;;;;6.45;3.80;;;4.90;99.90;;;;;;5003625;28;20520;-58
2022/04/28 00:59:06;;;;;;;6.15;3.85;;;5.00;99.90;;;;;;5038117;28;20025;-58
2022/04/28 01:01:32;;;;;;;7.05;3.88;;;5.00;99.90;;;;;;5026044;28;20030;-58
2022/04/28 01:03:59;;;;;;;5.45;3.88;;;5.00;99.90;;;;;;5047336;28;20078;-58
2022/04/28 01:06:25;;;;;;;8.38;4.97;;;5.00;99.90;;;;;;5028711;28;20022;-58
2022/04/28 01:08:51;;;;;;;7.05;4.15;;;5.10;99.90;;;;;;5047089;28;20420;-58
2022/04/28 01:11:17;;;;;;;9.15;4.72;;;5.10;99.90;;;;;;5028994;28;20021;-58
2022/04/28 01:13:43;;;;;;;7.45;4.55;;;5.10;99.90;;;;;;5047177;28;20040;-58
2022/04/28 01:16:09;;;;;;;8.55;5.25;;;5.10;99.90;;;;;;5031492;28;20607;-58
2022/04/28 01:18:35;;;;;;;8.68;5.35;;;5.10;99.90;;;;;;5047378;28;20072;-56
2022/04/28 01:21:03;;;;;;;7.05;5.10;;;5.10;99.90;;;;;;5032849;28;20052;-58
2022/04/28 01:23:31;;;;;;;8.68;5.10;;;5.10;99.90;;;;;;5047322;28;20078;-55
2022/04/28 01:25:56;;;;;;;6.88;4.93;;;5.10;99.90;;;;;;5033182;28;20640;-57
2022/04/28 01:28:22;;;;;;;7.53;4.93;;;5.10;99.90;;;;;;5046693;28;20033;-58
2022/04/28 01:30:47;;;;;;;8.23;4.88;;;5.10;99.90;;;;;;5034475;28;20037;-57
2022/04/28 01:33:13;;;;;;;6.57;4.72;;;5.10;99.90;;;;;;5046784;28;20404;-58
2022/04/28 01:35:38;;;;;;;6.47;4.25;;;5.10;99.90;;;;;;5029125;28;20057;-58
2022/04/28 01:38:04;;;;;;;6.60;4.68;;;5.10;99.90;;;;;;5046755;28;20027;-58
2022/04/28 01:40:29;;;;;;;7.00;4.90;;;5.10;99.90;;;;;;5028785;28;20038;-59
2022/04/28 01:42:55;;;;;;;8.27;5.45;;;5.00;99.90;;;;;;5046627;28;20032;-58
2022/04/28 01:45:20;;;;;;;7.22;4.78;;;5.00;99.90;;;;;;5028726;28;20141;-59
2022/04/28 01:47:45;;;;;;;8.45;5.40;;;5.00;99.90;;;;;;5046503;28;20048;-59
2022/04/28 01:50:11;;;;;;;6.95;4.80;;;5.00;99.90;;;;;;5039347;28;20026;-59
2022/04/28 01:55:23;;;;;;;11.90;5.38;;;5.00;99.90;;;;;;5037884;28;20035;-59
2022/04/28 01:57:48;;;;;;;5.88;3.88;;;5.10;99.90;;;;;;5046514;28;20016;-58
2022/04/28 02:00:54;;;;;;;7.35;4.70;;;5.10;99.90;;;;;;5014136;28;20109;-58
2022/04/28 02:04:19;;;;;;;8.88;4.97;;;5.10;99.90;;;;;;5035748;28;20037;-58
2022/04/28 02:07:44;;;;;;;8.20;4.70;;;5.20;99.90;;;;;;5035199;28;20045;-58
2022/04/28 02:11:10;;;;;;;11.70;4.75;;;5.10;99.90;;;;;;5029304;28;20048;-59
2022/04/28 02:14:35;;;;;;;8.30;5.00;;;5.10;99.90;;;;;;5043147;28;20109;-59
2022/04/28 02:18:00;;;;;;;9.55;5.25;;;5.10;99.90;;;;;;5044921;28;20036;-58
2022/04/28 02:21:26;;;;;;;8.38;4.70;;;5.00;99.90;;;;;;5027568;28;20034;-58
2022/04/28 02:24:51;;;;;;;12.77;5.32;;;5.00;99.90;;;;;;5042442;28;20028;-59
2022/04/28 02:28:16;;;;;;;9.57;5.45;;;4.90;99.90;;;;;;5035231;28;20029;-58
2022/04/28 02:31:42;;;;;;;14.73;5.25;;;4.90;99.90;;;;;;5027291;28;20087;-59
2022/04/28 02:35:07;;;;;;;7.38;4.82;;;4.80;99.90;;;;;;5043730;28;20797;-58
2022/04/28 02:38:33;;;;;;;8.40;5.05;;;4.70;99.90;;;;;;5022109;28;20040;-58
2022/04/28 02:41:58;;;;;;;13.65;6.18;;;4.60;99.90;;;;;;5025467;28;20506;-58
2022/04/28 02:45:23;;;;;;;9.88;5.55;;;4.70;99.90;;;;;;5041632;28;20043;-58
2022/04/28 02:48:49;;;;;;;10.48;5.68;;;4.70;99.90;;;;;;5034704;28;20041;-59
2022/04/28 02:52:14;;;;;;;11.18;5.45;;;4.80;99.90;;;;;;5041415;28;20025;-57
2022/04/28 02:55:40;;;;;;;9.20;5.50;;;4.80;99.90;;;;;;5039358;28;20095;-58
2022/04/28 02:59:05;;;;;;;13.63;5.57;;;4.80;99.90;;;;;;5037482;28;20033;-57
2022/04/28 03:02:30;;;;;;;12.25;5.32;;;4.90;99.90;;;;;;5033411;28;20523;-58
2022/04/28 03:12:04;;;;;;;10.55;5.45;;;4.90;99.90;;;;;;5008662;28;20068;-61
2022/04/28 03:14:30;;;;;;;12.48;6.30;;;4.80;99.90;;;;;;5043488;28;20629;-61
2022/04/28 03:16:55;;;;;;;9.35;5.63;;;4.80;99.90;;;;;;5026313;28;20396;-61
2022/04/28 03:19:21;;;;;;;8.00;5.03;;;4.80;99.90;;;;;;5044316;28;20029;-62
2022/04/28 03:21:46;;;;;;;9.40;6.03;;;4.70;99.90;;;;;;5046752;28;20037;-62
2022/04/28 03:24:12;;;;;;;12.25;6.25;;;4.70;99.90;;;;;;5026384;28;20404;-62
2022/04/28 03:26:40;;;;;;;12.43;6.07;;;4.60;99.90;;;;;;5046591;28;20021;-62
2022/04/28 03:29:06;;;;;;;11.98;6.68;;;4.60;99.90;;;;;;5043017;28;20458;-63
2022/04/28 03:31:31;;;;;;;10.40;5.85;;;4.60;99.90;;;;;;5025597;28;20034;-63
2022/04/28 03:33:57;;;;;;;11.48;7.15;;;4.60;99.90;;;;;;5045067;28;20041;-63
2022/04/28 03:39:06;;;;;;;10.32;6.15;;;4.70;99.90;;;;;;5042550;28;20518;-63
2022/04/28 03:41:32;;;;;;;11.07;5.22;;;4.70;99.90;;;;;;5026789;28;20053;-63
2022/04/28 03:43:57;;;;;;;13.18;6.25;;;4.80;99.90;;;;;;5044972;28;20404;-63
2022/04/28 03:46:24;;;;;;;10.07;5.90;;;4.80;99.90;;;;;;5040500;28;20044;-63
2022/04/28 03:48:50;;;;;;;10.25;5.85;;;4.90;99.90;;;;;;5047080;28;20411;-63
2022/04/28 03:51:15;;;;;;;11.00;5.70;;;5.00;99.90;;;;;;5023810;28;20560;-63
2022/04/28 03:53:41;;;;;;;8.73;5.72;;;5.10;99.90;;;;;;5046711;28;20451;-63
2022/04/28 03:56:06;;;;;;;8.07;5.45;;;5.20;99.90;;;;;;5025797;28;20030;-63
2022/04/28 03:58:32;;;;;;;11.05;5.95;;;5.30;99.90;;;;;;5046583;28;20112;-63
2022/04/28 04:00:58;;;;;;;8.57;5.85;;;5.30;99.90;;;;;;5018809;28;20029;-63
2022/04/28 04:03:24;;;;;;;10.38;5.43;;;5.40;99.90;;;;;;5046590;28;20086;-63
2022/04/28 04:05:50;;;;;;;11.68;5.97;;;5.40;99.90;;;;;;5025404;28;20030;-63
2022/04/28 04:08:15;;;;;;;12.00;6.20;;;5.50;99.90;;;;;;5046175;28;20481;-63
2022/04/28 04:10:41;;;;;;;8.70;5.30;;;5.60;99.90;;;;;;5025359;28;20056;-63
2022/04/28 04:13:07;;;;;;;9.07;5.53;;;5.60;99.90;;;;;;5026668;28;20055;-62
2022/04/28 04:15:32;;;;;;;11.85;5.75;;;5.70;99.90;;;;;;5026524;28;20475;-63
2022/04/28 04:17:58;;;;;;;8.75;4.95;;;5.80;99.90;;;;;;5044610;28;20033;-63
2022/04/28 04:20:25;;;;;;;10.85;6.78;;;5.80;99.90;;;;;;5026829;28;20021;-63
2022/04/28 04:22:52;;;;;;;10.18;5.82;;;5.90;99.90;;;;;;5042505;28;20040;-63
2022/04/28 04:25:18;;;;;;;9.10;5.70;;;6.00;99.90;;;;;;5026242;28;20048;-63
2022/04/28 04:27:43;;;;;;;8.52;5.70;;;6.10;99.90;;;;;;5044316;28;20377;-63
2022/04/28 04:32:53;;;;;;;10.25;5.43;;;6.70;99.90;;;;;;5025044;28;20091;-63
2022/04/28 04:35:19;;;;;;;9.20;5.07;;;7.40;98.50;;;;;;5030012;28;20033;-63
2022/04/28 04:37:45;;;;;;;10.60;5.65;;;7.60;95.80;;;;;;5047891;28;20031;-63
2022/04/28 04:40:12;;;;;;;9.25;5.32;;;7.80;94.80;;;;;;5040554;28;20475;-62
2022/04/28 04:42:38;;;;;;;7.50;5.18;;;9.00;90.90;;;;;;5047853;28;20394;-62
2022/04/28 04:45:05;;;;;;;7.28;4.82;;;10.30;78.40;;;;;;5041256;28;20063;-63
2022/04/28 04:47:30;;;;;;;7.22;4.38;;;11.50;67.50;;;;;;5047596;28;20025;-65
2022/04/28 04:50:36;;;;;;;5.88;4.30;;;12.40;59.60;;;;;;5040153;28;20029;-63
2022/04/28 04:54:01;;;;;;;7.65;4.50;;;13.30;51.50;;;;;;5036100;28;20072;-64
2022/04/28 04:57:26;;;;;;;10.27;4.65;;;14.30;46.10;;;;;;5045539;28;20491;-64
2022/04/28 05:00:52;;;;;;;4.63;3.70;;;14.00;41.00;;;;;;5025877;28;20055;-63
2022/04/28 05:04:17;;;;;;;5.07;4.10;;;12.50;48.80;;;;;;5036097;28;20049;-64
2022/04/28 05:07:42;;;;;;;7.05;4.53;;;11.70;56.80;;;;;;5049588;28;20033;-64
2022/04/28 05:11:08;;;;;;;6.55;4.50;;;11.10;58.40;;;;;;5034477;28;20038;-64
2022/04/28 05:14:33;;;;;;;6.65;4.50;;;10.70;62.00;;;;;;5041217;28;20094;-64
2022/04/28 05:17:58;;;;;;;8.20;5.10;;;10.40;60.70;;;;;;5036264;28;20036;-63
2022/04/28 05:21:24;;;;;;;11.18;5.18;;;10.20;61.10;;;;;;5028592;28;20419;-63
2022/04/28 05:24:49;;;;;;;8.38;4.45;;;11.20;54.90;;;;;;5044538;28;20033;-63
2022/04/28 05:28:14;;;;;;;6.20;4.05;;;11.40;53.30;;;;;;5045722;28;20725;-63
2022/04/28 05:31:40;;;;;;;4.97;3.25;;;11.30;52.50;;;;;;5023878;28;20092;-64
2022/04/28 05:35:05;;;;;;;4.13;3.33;;;12.00;52.20;;;;;;5045077;28;20045;-63
2022/04/28 05:38:32;;;;;;;6.93;4.25;;;12.40;46.50;;;;;;5035631;28;20075;-64
2022/04/28 05:41:56;;;;;;;5.28;2.75;;;12.80;46.80;;;;;;5039224;28;20035;-63
2022/04/28 05:48:46;;;;;;;5.53;3.63;;;14.90;30.80;;;;;;5027985;28;20040;-64
2022/04/28 05:52:11;;;;;;;5.85;3.97;;;15.20;32.70;;;;;;5042185;28;20258;-64
2022/04/28 05:55:37;;;;;;;6.25;3.60;;;15.20;33.30;;;;;;5029519;28;20592;-64
2022/04/28 05:59:02;;;;;;;6.05;3.38;;;15.90;30.90;;;;;;5037510;28;20029;-64
2022/04/28 06:01:47;;;;;;;4.45;3.35;;;15.60;29.90;;;;;;5015810;28;20041;-65
2022/04/28 06:04:53;;;;;;;4.63;3.95;;;14.90;35.70;;;;;;5035338;28;20091;-64
2022/04/28 06:08:18;;;;;;;4.20;3.17;;;14.50;32.10;;;;;;5041507;28;20079;-64
2022/04/28 06:11:44;;;;;;;4.72;3.08;;;14.00;36.00;;;;;;5026674;28;20051;-64
2022/04/28 06:15:09;;;;;;;8.27;5.18;;;13.60;35.00;;;;;;5039146;28;20057;-64
2022/04/28 06:17:41;;;;;;;5.95;4.05;;;13.30;34.40;;;;;;5008930;28;20456;-64
2022/04/28 06:20:07;;;;;;;5.80;3.70;;;13.00;38.60;;;;;;5037753;28;20037;-64
2022/04/28 06:23:13;;;;;;;8.48;4.88;;;12.80;39.20;;;;;;5046028;28;20036;-64
2022/04/28 06:26:38;;;;;;;8.15;4.43;;;12.80;34.70;;;;;;5035392;28;20412;-64
2022/04/28 06:30:03;;;;;;;5.93;3.92;;;12.80;37.70;;;;;;5033727;28;20086;-64
2022/04/28 06:33:29;;;;;;;8.68;4.65;;;12.90;38.20;;;;;;5044490;28;20650;-64
2022/04/28 06:36:54;;;;;;;6.18;4.18;;;13.10;35.80;;;;;;5037347;28;20025;-64
2022/04/28 06:40:19;;;;;;;4.90;3.42;;;13.20;35.60;;;;;;5031216;28;20029;-64
2022/04/28 06:43:45;;;;;;;6.93;4.35;;;13.30;34.10;;;;;;5048058;28;20040;-64
2022/04/28 06:47:10;;;;;;;7.57;4.68;;;13.20;34.80;;;;;;5039571;28;20099;-64
2022/04/28 06:50:35;;;;;;;7.80;4.38;;;13.30;34.50;;;;;;5014238;28;20034;-64
2022/04/28 06:54:02;;;;;;;12.60;6.97;;;13.50;33.80;;;;;;5041347;28;20049;-64
2022/04/28 06:57:26;;;;;;;8.77;5.13;;;13.70;32.40;;;;;;5034396;28;20549;-64
2022/04/28 07:00:52;;;;;;;7.97;4.72;;;14.20;33.10;;;;;;5017348;28;20045;-63
2022/04/28 07:04:17;;;;;;;8.38;5.22;;;14.70;31.80;;;;;;5047690;28;20102;-63
2022/04/28 07:07:42;;;;;;;7.38;4.65;;;15.20;30.50;;;;;;5036791;28;20052;-62
2022/04/28 07:11:08;;;;;;;11.23;5.10;;;16.00;26.40;;;;;;5031259;28;20040;-62
2022/04/28 07:14:33;;;;;;;9.38;5.20;;;16.80;24.20;;;;;;5027615;28;20485;-62
2022/04/28 07:17:59;;;;;;;9.55;5.05;;;17.90;22.90;;;;;;5040889;28;20094;-61
2022/04/28 07:21:24;;;;;;;7.95;4.57;;;19.50;19.30;;;;;;5029992;28;20473;-62
2022/04/28 07:24:49;;;;;;;8.65;5.35;;;19.50;18.30;;;;;;5007867;28;20061;-62
2022/04/28 07:28:15;;;;;;;7.53;4.25;;;20.60;15.50;;;;;;5045264;28;20454;-61
2022/04/28 07:31:40;;;;;;;7.38;3.67;;;22.90;13.70;;;;;;5029799;28;20132;-62
2022/04/28 07:35:05;;;;;;;7.82;3.03;;;23.20;12.30;;;;;;5009665;28;20501;-62
2022/04/28 07:38:31;;;;;;;9.45;2.85;;;25.20;8.70;;;;;;5032948;28;20033;-62
2022/04/28 07:41:56;;;;;;;14.68;3.10;;;26.60;5.80;;;;;;5027448;28;20034;-72
2022/04/28 07:45:22;;;;;;;6.10;2.83;;;26.30;3.10;;;;;;5041638;28;20035;-73
2022/04/28 07:48:47;;;;;;;6.35;2.30;;;25.80;5.70;;;;;;5041518;28;20539;-72
2022/04/28 07:52:12;;;;;;;3.90;1.88;;;25.90;6.10;;;;;;5027935;28;20037;-64
2022/04/28 07:55:38;;;;;;;7.95;4.35;;;28.90;1.80;;;;;;5039196;28;20464;-64
2022/04/28 07:59:03;;;;;;;4.25;2.63;;;30.00;1.00;;;;;;5043488;28;20048;-64
2022/04/28 08:02:29;;;;;;;6.93;3.20;;;30.90;1.00;;;;;;5015870;28;20033;-64
2022/04/28 08:05:54;;;;;;;7.07;2.42;;;31.30;1.00;;;;;;5039347;28;20073;-63
2022/04/28 08:09:19;;;;;;;6.75;2.80;;;31.00;1.00;;;;;;5050868;28;20083;-62
2022/04/28 08:12:44;;;;;;;3.65;2.30;;;31.30;1.00;;;;;;5023881;28;20405;-63
2022/04/28 08:16:10;;;;;;;8.40;2.50;;;32.20;1.00;;;;;;5038050;28;20409;-63
2022/04/28 08:19:35;;;;;;;4.50;2.00;;;32.90;1.00;;;;;;5011118;28;20030;-63
2022/04/28 08:23:00;;;;;;;5.05;2.45;;;32.90;1.00;;;;;;5027989;28;20044;-63
2022/04/28 08:26:26;;;;;;;4.55;2.22;;;33.10;1.00;;;;;;5035933;28;20037;-63
2022/04/28 08:29:51;;;;;;;3.08;2.33;;;34.10;1.00;;;;;;5011051;28;20485;-63
2022/04/28 08:33:17;;;;;;;4.47;2.53;;;34.80;1.00;;;;;;5032200;28;20045;-63
2022/04/28 08:36:42;;;;;;;4.28;2.42;;;34.90;1.00;;;;;;5033680;28;20040;-63
2022/04/28 08:40:07;;;;;;;3.05;2.17;;;34.30;1.00;;;;;;5043366;28;20034;-63
2022/04/28 08:43:33;;;;;;;4.57;2.03;;;32.80;1.00;;;;;;5039188;28;20614;-63
2022/04/28 08:46:58;;;;;;;5.63;2.40;;;33.20;1.00;;;;;;5026457;28;20037;-62
2022/04/28 08:50:23;;;;;;;3.53;1.88;;;33.90;1.00;;;;;;5043867;28;20493;-63
2022/04/28 08:53:49;;;;;;;6.07;2.42;;;34.30;1.00;;;;;;5040479;28;20566;-63
2022/04/28 08:57:14;;;;;;;3.25;2.55;;;35.00;1.00;;;;;;5030450;28;20058;-64
2022/04/28 09:00:40;;;;;;;7.15;2.60;;;36.00;1.00;;;;;;5016715;28;20545;-63
2022/04/28 09:04:05;;;;;;;4.32;2.42;;;35.00;1.00;;;;;;5044667;28;20033;-63
2022/04/28 09:07:30;;;;;;;7.78;2.83;;;30.70;1.00;;;;;;5043910;28;20039;-64
2022/04/28 09:11:08;;;;;;;6.13;2.25;;;29.70;1.00;;;;;;5029261;28;20037;-63
2022/04/28 09:14:36;;;;;;;7.53;3.42;;;31.20;1.00;;;;;;5049424;28;20072;-64
2022/04/28 09:18:02;;;;;;;4.80;2.63;;;32.20;1.00;;;;;;5036255;28;20496;-63
2022/04/28 09:21:27;;;;;;;7.03;2.80;;;31.20;1.00;;;;;;5030416;28;20168;-63
2022/04/28 09:24:52;;;;;;;4.13;2.13;;;32.30;1.00;;;;;;5047570;28;20048;-63
2022/04/28 09:28:18;;;;;;;4.63;2.33;;;30.00;1.00;;;;;;5036566;28;20033;-63
2022/04/28 09:31:09;;;;;;;5.13;2.95;;;28.90;1.00;;;;;;5028357;28;20049;-55
2022/04/28 09:33:36;;;;;;;4.50;2.90;;;29.80;1.00;;;;;;5046824;28;20044;-57
2022/04/28 09:36:42;;;;;;;3.75;3.10;;;31.10;1.00;;;;;;5032194;28;20033;-51
2022/04/28 09:43:40;;;;;;;4.70;2.63;;;32.70;1.00;;;;;;5037761;28;20048;-55
2022/04/28 09:47:05;;;;;;;6.50;3.03;;;32.70;1.00;;;;;;5042118;28;20542;-56
2022/04/28 09:50:31;;;;;;;4.30;2.58;;;33.30;1.00;;;;;;5014428;28;20036;-56
2022/04/28 09:53:57;;;;;;;5.78;2.58;;;33.50;1.00;;;;;;5041455;28;20492;-55
2022/04/28 09:57:22;;;;;;;4.53;2.47;;;33.00;1.00;;;;;;5042437;28;20028;-54
2022/04/28 10:00:47;;;;;;;6.13;2.42;;;30.00;1.00;;;;;;5029535;28;20041;-52
2022/04/28 10:04:12;;;;;;;6.05;2.80;;;27.80;1.00;;;;;;5045754;28;20025;-54
2022/04/28 10:07:38;;;;;;;6.97;2.42;;;26.70;1.00;;;;;;5035777;28;20033;-55
2022/04/28 10:11:03;;;;;;;2.92;2.53;;;25.00;1.00;;;;;;5025541;28;20037;-56
2022/04/28 10:14:29;;;;;;;6.30;2.97;;;24.10;1.00;;;;;;5048182;28;20515;-54
2022/04/28 10:18:06;;;;;;;3.22;2.40;;;23.50;1.00;;;;;;5035602;28;20077;-54
2022/04/28 10:21:31;;;;;;;6.43;2.20;;;22.90;1.00;;;;;;5026739;28;20817;-54
2022/04/28 10:32:24;;;;;;;3.17;2.13;;;21.90;2.00;;;;;;5024463;28;20117;-55
2022/04/28 10:35:56;;;;;;;3.10;1.88;;;22.20;2.30;;;;;;5036576;28;20045;-54
2022/04/28 10:39:30;;;;;;;6.18;2.55;;;22.50;1.90;;;;;;5047812;28;20065;-56
2022/04/28 10:42:35;;;;;;;3.10;1.95;;;22.50;1.20;;;;;;5036524;28;20036;-54
2022/04/28 10:46:01;;;;;;;4.00;2.22;;;22.10;1.90;;;;;;5017524;28;20457;-56
2022/04/28 10:49:26;;;;;;;2.97;2.30;;;21.90;1.20;;;;;;5044182;28;20045;-56
2022/04/28 10:53:05;;;;;;;3.22;1.88;;;21.30;1.80;;;;;;5040358;28;20506;-54
2022/04/28 10:56:29;;;;;;;3.53;1.80;;;20.90;2.60;;;;;;5021083;28;20041;-51
2022/04/28 10:59:27;;;;;;;3.65;1.85;;;20.80;2.00;;;;;;5045794;28;20795;-55
2022/04/28 11:02:14;;;;;;;2.95;2.40;;;21.10;2.50;;;;;;5022674;28;20404;-55
2022/04/28 11:05:47;;;;;;;4.75;1.92;;;21.10;1.90;;;;;;5026710;28;20037;-54
2022/04/28 11:09:11;;;;;;;2.47;1.67;;;20.90;2.20;;;;;;5043963;28;20548;-56
2022/04/28 11:12:37;;;;;;;3.60;1.90;;;20.80;2.60;;;;;;5042152;28;20045;-52
2022/04/28 11:16:02;;;;;;;5.82;1.90;;;20.60;3.10;;;;;;5026540;28;20051;-55
2022/04/28 11:19:27;;;;;;;2.33;1.60;;;20.30;4.20;;;;;;5047458;28;20037;-57
2022/04/28 11:22:54;;;;;;;4.75;2.22;;;20.10;4.30;;;;;;5034967;28;20049;-56
2022/04/28 11:26:18;;;;;;;5.38;2.05;;;19.60;4.80;;;;;;5013926;28;20397;-56
2022/04/28 11:29:50;;;;;;;6.38;2.50;;;19.40;5.70;;;;;;5036476;28;20094;-56
2022/04/28 11:33:16;;;;;;;2.75;1.50;;;19.30;5.20;;;;;;5034634;28;20040;-55
2022/04/28 11:36:41;;;;;;;2.42;1.30;;;19.40;4.80;;;;;;5035936;28;20449;-54
2022/04/28 11:40:06;;;;;;;2.58;1.70;;;19.30;4.80;;;;;;5041087;28;20052;-54
2022/04/28 11:43:37;;;;;;;3.05;1.42;;;19.50;4.90;;;;;;5042778;28;20076;-51
2022/04/28 11:47:05;;;;;;;3.33;1.80;;;19.70;4.70;;;;;;5028987;28;20041;-53
2022/04/28 11:50:37;;;;;;;4.65;1.90;;;19.90;4.50;;;;;;5043865;28;20084;-54
2022/04/28 11:53:57;;;;;;;4.30;1.80;;;20.10;3.80;;;;;;5045456;28;20696;-59
2022/04/28 11:56:31;;;;;;;2.85;1.67;;;20.20;3.40;;;;;;5010671;28;20028;-59
2022/04/28 11:59:00;;;;;;;2.30;1.63;;;20.40;3.10;;;;;;5016942;28;20033;-58
2022/04/28 12:01:29;;;;;;;4.38;1.85;;;20.60;2.80;;;;;;5039524;28;20040;-59
2022/04/28 12:04:35;;;;;;;3.63;1.40;;;21.00;2.60;;;;;;5049428;28;20032;-59
2022/04/28 12:08:00;;;;;;;2.13;1.38;;;21.40;2.70;;;;;;5028997;28;20046;-59
2022/04/28 12:14:50;;;;;;;2.15;1.52;;;21.90;2.30;;;;;;5043180;28;20083;-59
2022/04/28 12:21:42;;;;;;;5.82;1.75;;;22.10;2.30;;;;;;5017699;28;20045;-59
2022/04/28 12:24:47;;;;;;;;;;;22.10;2.20;;;;;;5047691;28;20477;-59
2022/04/28 12:28:19;;;;;;;4.43;1.60;;;21.70;2.10;;;;;;5033840;28;19917;-58
2022/04/28 12:31:45;;;;;;;4.70;1.85;;;21.30;2.40;;;;;;5014941;28;20083;-59
2022/04/28 12:35:16;;;;;;;3.78;1.70;;;20.90;2.90;;;;;;5025415;28;20129;-59
2022/04/28 12:38:44;;;;;;;4.65;1.73;;;20.50;3.10;;;;;;5037853;28;20030;-58
2022/04/28 12:42:09;;;;;;;2.65;1.70;;;20.50;2.80;;;;;;5028288;28;20041;-58
2022/04/28 12:45:35;;;;;;;3.78;1.48;;;20.30;3.80;;;;;;5029210;28;20050;-59
2022/04/28 12:49:03;;;;;;;4.97;1.63;;;20.40;3.40;;;;;;5024441;28;20123;-58
2022/04/28 12:52:30;;;;;;;5.97;1.88;;;20.20;3.60;;;;;;5023313;28;20725;-59
2022/04/28 12:55:54;;;;;;;4.50;1.63;;;19.90;3.80;;;;;;5035826;28;20041;-59
2022/04/28 12:59:27;;;;;;;2.30;1.40;;;19.70;4.30;;;;;;5036539;28;20503;-58
2022/04/28 13:02:48;;;;;;;9.40;1.70;;;19.60;4.20;;;;;;5025011;28;20037;-58
2022/04/28 13:06:13;;;;;;;2.60;1.83;;;19.50;3.70;;;;;;5034856;28;20056;-59
2022/04/28 13:09:38;;;;;;;3.78;1.58;;;19.30;3.80;;;;;;5047661;28;20087;-58
2022/04/28 13:13:04;;;;;;;2.97;1.35;;;19.20;4.40;;;;;;5021189;28;20650;-58
2022/04/28 13:16:29;;;;;;;2.53;1.52;;;19.30;4.30;;;;;;5034445;28;20083;-59
2022/04/28 13:19:55;;;;;;;1.60;1.20;;;19.60;4.00;;;;;;5029117;28;20785;-58
2022/04/28 13:23:20;;;;;;;2.30;1.70;;;19.90;3.80;;;;;;5042243;28;20039;-58
2022/04/28 13:26:45;;;;;;;4.43;1.52;;;20.10;3.40;;;;;;5041834;28;20059;-59
2022/04/28 13:30:11;;;;;;;4.47;1.80;;;20.10;3.40;;;;;;5005920;28;20066;-59
2022/04/28 13:33:37;;;;;;;3.28;1.40;;;20.40;3.40;;;;;;5039341;28;20092;-59
2022/04/28 13:37:01;;;;;;;2.95;1.35;;;20.60;3.30;;;;;;5033699;28;20064;-59
2022/04/28 13:40:27;;;;;;;3.20;1.50;;;20.70;3.10;;;;;;5026073;28;20080;-59
2022/04/28 13:43:52;;;;;;;3.80;1.25;;;20.90;2.90;;;;;;5007325;28;20049;-58
2022/04/28 13:47:18;;;;;;;6.35;1.75;;;21.00;3.00;;;;;;5030586;28;20057;-59
2022/04/28 13:50:44;;;;;;;4.50;1.58;;;21.10;3.00;;;;;;5035981;28;20857;-59
2022/04/28 13:54:08;;;;;;;4.53;1.45;;;21.10;3.00;;;;;;5037813;28;20041;-59
2022/04/28 13:57:34;;;;;;;2.35;1.50;;;20.80;2.70;;;;;;5029959;28;20100;-59
2022/04/28 14:00:59;;;;;;;2.75;1.40;;;20.40;3.20;;;;;;5023976;28;20076;-59
2022/04/28 14:04:25;;;;;;;2.20;1.20;;;20.10;3.50;;;;;;5021296;28;20397;-59
2022/04/28 14:07:50;;;;;;;3.03;1.23;;;19.70;4.10;;;;;;5033232;28;20115;-59
2022/04/28 14:11:15;;;;;;;3.38;1.80;;;19.50;4.60;;;;;;5026979;28;20044;-59
2022/04/28 14:14:42;;;;;;;3.25;1.92;;;19.20;5.30;;;;;;5015282;28;20129;-59
2022/04/28 14:18:06;;;;;;;6.38;2.00;;;19.10;5.50;;;;;;5009145;28;20069;-59
2022/04/28 14:20:32;;;;;;;4.78;1.88;;;19.00;5.70;;;;;;5025924;28;20025;-60
2022/04/28 14:22:58;;;;;;;5.40;1.75;;;19.10;5.40;;;;;;5023309;28;20496;-60
2022/04/28 14:25:23;;;;;;;8.52;1.85;;;19.00;5.50;;;;;;5028093;28;20021;-60
2022/04/28 14:27:49;;;;;;;5.97;2.10;;;19.10;5.40;;;;;;5036787;28;20108;-60
2022/04/28 14:30:14;;;;;;;4.10;1.35;;;19.10;5.20;;;;;;5027939;28;20030;-61
2022/04/28 14:32:40;;;;;;;2.17;1.20;;;19.20;5.70;;;;;;5022924;28;20033;-60
2022/04/28 14:35:07;;;;;;;2.03;1.50;;;19.20;5.40;;;;;;5028847;28;20076;-59
2022/04/28 14:37:34;;;;;;;3.15;1.23;;;19.30;5.20;;;;;;5041800;28;20124;-60
2022/04/28 14:40:00;;;;;;;3.75;1.60;;;19.30;5.00;;;;;;5028307;28;20021;-60
2022/04/28 14:42:26;;;;;;;3.88;1.38;;;19.40;4.90;;;;;;5042358;28;20036;-60
2022/04/28 14:44:52;;;;;;;2.85;1.27;;;19.50;4.70;;;;;;5028410;28;20584;-59
2022/04/28 14:47:17;;;;;;;6.68;2.05;;;19.30;4.90;;;;;;5043569;28;20690;-59
2022/04/28 14:52:29;;;;;;;2.85;1.75;;;19.30;5.20;;;;;;5010845;28;20144;-60
2022/04/28 14:54:57;;;;;;;4.28;1.42;;;19.20;5.20;;;;;;5028258;28;20428;-59
2022/04/28 14:57:38;;;;;;;4.47;1.40;;;19.30;5.10;;;;;;5042733;28;20021;-59
2022/04/28 15:00:08;;;;;;;2.13;1.60;;;19.50;5.10;;;;;;5032118;28;20029;-60
2022/04/28 15:02:34;;;;;;;3.63;1.40;;;19.50;4.80;;;;;;5022117;28;20150;-59
2022/04/28 15:05:00;;;;;;;4.43;1.35;;;19.40;4.90;;;;;;5028250;28;20481;-59
2022/04/28 15:07:26;;;;;;;2.38;1.15;;;19.40;5.00;;;;;;5042101;28;20039;-60
2022/04/28 15:09:51;;;;;;;1.48;1.08;;;19.40;5.30;;;;;;5028238;28;20101;-58
2022/04/28 15:12:18;;;;;;;4.07;1.50;;;19.50;5.20;;;;;;5042594;28;20139;-57
2022/04/28 15:15:25;;;;;;;6.28;1.63;;;19.60;5.10;;;;;;5031543;28;20037;-58
2022/04/28 15:18:49;;;;;;;2.10;1.50;;;19.60;5.40;;;;;;5028593;28;20501;-57
2022/04/28 15:22:14;;;;;;;3.92;1.48;;;19.50;5.60;;;;;;5043763;28;20036;-58
2022/04/28 15:25:00;;;;;;;4.88;1.60;;;19.60;5.40;;;;;;5041913;28;20041;-58
2022/04/28 15:28:05;;;;;;;7.43;2.17;;;19.40;5.30;;;;;;5043603;28;20024;-58
2022/04/28 15:30:51;;;;;;;2.58;1.48;;;19.10;5.20;;;;;;5039642;28;20404;-60
2022/04/28 15:33:56;;;;;;;5.57;1.60;;;19.00;5.50;;;;;;5037020;28;20042;-60
2022/04/28 15:37:21;;;;;;;4.68;2.15;;;18.80;5.50;;;;;;5037854;28;20400;-61
2022/04/28 15:40:47;;;;;;;4.57;1.63;;;18.60;6.20;;;;;;5034395;28;20041;-61
2022/04/28 15:44:12;;;;;;;3.22;1.83;;;18.40;6.70;;;;;;5022462;28;20065;-61
2022/04/28 15:47:37;;;;;;;2.97;1.52;;;18.30;7.20;;;;;;5033543;28;20462;-61
2022/04/28 15:51:03;;;;;;;5.32;1.58;;;18.20;7.20;;;;;;5035090;28;20064;-61
2022/04/28 15:54:28;;;;;;;2.05;1.42;;;18.00;7.60;;;;;;5028528;28;20053;-61
2022/04/28 15:57:54;;;;;;;2.95;1.30;;;17.90;7.70;;;;;;5039417;28;20033;-61
2022/04/28 16:01:19;;;;;;;3.75;1.38;;;17.90;8.20;;;;;;5032329;28;20129;-60
2022/04/28 16:04:44;;;;;;;2.50;1.48;;;17.70;7.80;;;;;;5025970;28;20044;-61
2022/04/28 16:08:10;;;;;;;4.03;1.50;;;17.60;8.10;;;;;;5033598;28;20082;-61
2022/04/28 16:11:35;;;;;;;4.68;1.42;;;17.40;8.50;;;;;;5040926;28;20435;-60
2022/04/28 16:15:00;;;;;;;3.40;1.40;;;17.30;8.60;;;;;;5026824;28;20049;-61
2022/04/28 16:18:26;;;;;;;6.03;1.90;;;17.20;8.80;;;;;;5037243;28;20563;-61
2022/04/28 16:21:53;;;;;;;5.00;1.40;;;17.10;8.80;;;;;;5036738;28;20032;-61
2022/04/28 16:25:16;;;;;;;4.05;1.42;;;17.00;9.60;;;;;;5026045;28;20088;-61
2022/04/28 16:28:42;;;;;;;9.68;2.47;;;16.90;10.00;;;;;;5041479;28;20034;-61
2022/04/28 16:32:08;;;;;;;2.22;1.63;;;16.70;9.90;;;;;;5037643;28;20468;-61
2022/04/28 16:35:33;;;;;;;2.28;1.67;;;16.50;10.10;;;;;;5038177;28;20037;-61
2022/04/28 16:38:58;;;;;;;6.10;1.70;;;16.40;10.10;;;;;;5039010;28;20044;-61
2022/04/28 16:42:23;;;;;;;3.72;1.90;;;16.20;11.10;;;;;;5037432;28;20041;-61
2022/04/28 16:45:52;;;;;;;2.28;1.08;;;16.00;11.40;;;;;;5038957;28;20071;-60
2022/04/28 16:49:14;;;;;;;2.97;1.33;;;15.90;11.50;;;;;;5024323;28;20033;-60
2022/04/28 16:52:44;;;;;;;3.33;1.40;;;15.80;12.80;;;;;;5034776;28;20033;-61